createdAt,value
2023-04-29T00:02:11.589Z,9.74
2023-04-29T00:04:39.249Z,9.74
2023-04-29T00:07:08.340Z,9.76
2023-04-29T00:09:37.482Z,9.76
2023-04-29T00:12:06.339Z,9.67
2023-04-29T00:14:33.759Z,9.64
2023-04-29T00:17:01.109Z,9.67
2023-04-29T00:19:29.350Z,9.62
2023-04-29T00:21:56.876Z,9.58
2023-04-29T00:24:24.407Z,9.49
2023-04-29T00:26:51.885Z,9.50
2023-04-29T00:29:20.685Z,9.42
2023-04-29T00:31:48.155Z,9.40
2023-04-29T00:34:15.586Z,9.34
2023-04-29T00:36:43.126Z,9.34
2023-04-29T00:39:12.009Z,9.22
2023-04-29T00:41:40.297Z,9.24
2023-04-29T00:44:07.836Z,9.19
2023-04-29T00:46:37.242Z,9.18
2023-04-29T00:49:05.057Z,9.18
2023-04-29T00:51:33.660Z,9.15
2023-04-29T00:54:00.896Z,9.12
2023-04-29T00:56:31.699Z,9.12
2023-04-29T00:58:59.994Z,9.10
2023-04-29T01:01:28.121Z,9.12
2023-04-29T01:03:57.574Z,9.07
2023-04-29T01:06:37.089Z,9.06
2023-04-29T01:09:17.242Z,9.02
2023-04-29T01:11:53.437Z,8.99
2023-04-29T01:14:21.917Z,8.99
2023-04-29T01:16:52.875Z,8.98
2023-04-29T01:19:40.188Z,8.92
2023-04-29T01:22:07.618Z,8.95
2023-04-29T01:24:37.809Z,8.91
2023-04-29T01:27:14.266Z,8.89
2023-04-29T01:29:50.697Z,8.83
2023-04-29T01:32:26.357Z,8.84
2023-04-29T01:34:59.727Z,8.87
2023-04-29T01:37:39.017Z,8.84
2023-04-29T01:40:12.660Z,8.88
2023-04-29T01:42:58.990Z,8.89
2023-04-29T01:45:27.309Z,8.90
2023-04-29T01:47:58.716Z,8.90
2023-04-29T01:50:27.201Z,8.87
2023-04-29T01:52:57.076Z,8.84
2023-04-29T01:55:25.968Z,8.84
2023-04-29T01:58:11.246Z,8.84
2023-04-29T02:00:55.471Z,8.85
2023-04-29T02:03:23.173Z,8.82
2023-04-29T02:05:54.517Z,8.81
2023-04-29T02:08:22.173Z,8.79
2023-04-29T02:10:55.799Z,8.68
2023-04-29T02:13:34.317Z,8.66
2023-04-29T02:16:08.386Z,8.58
2023-04-29T02:18:36.245Z,8.56
2023-04-29T02:21:05.748Z,8.55
2023-04-29T02:23:35.331Z,8.52
2023-04-29T02:26:06.365Z,8.53
2023-04-29T02:28:35.064Z,8.55
2023-04-29T02:31:02.899Z,8.52
2023-04-29T02:33:31.183Z,8.53
2023-04-29T02:35:59.796Z,8.51
2023-04-29T02:38:27.380Z,8.52
2023-04-29T02:40:54.740Z,8.48
2023-04-29T02:43:24.121Z,8.50
2023-04-29T02:45:52.145Z,8.48
2023-04-29T02:48:19.703Z,8.49
2023-04-29T02:50:47.108Z,8.49
2023-04-29T02:53:14.616Z,8.48
2023-04-29T02:55:43.262Z,8.46
2023-04-29T02:58:10.898Z,8.50
2023-04-29T03:00:40.780Z,8.51
2023-04-29T03:03:09.891Z,8.52
2023-04-29T03:05:37.555Z,8.50
2023-04-29T03:08:05.108Z,8.48
2023-04-29T03:10:33.257Z,8.50
2023-04-29T03:13:01.060Z,8.49
2023-04-29T03:15:28.532Z,8.51
2023-04-29T03:17:59.777Z,8.55
2023-04-29T03:20:27.285Z,8.55
2023-04-29T03:22:54.716Z,8.54
2023-04-29T03:25:22.991Z,8.57
2023-04-29T03:27:50.869Z,8.58
2023-04-29T03:30:18.559Z,8.58
2023-04-29T03:32:50.789Z,8.63
2023-04-29T03:35:20.001Z,8.63
2023-04-29T03:38:16.434Z,8.62
2023-04-29T03:40:45.587Z,8.65
2023-04-29T03:43:14.012Z,8.68
2023-04-29T03:45:42.069Z,8.69
2023-04-29T03:48:10.153Z,8.72
2023-04-29T03:50:38.988Z,8.76
2023-04-29T03:53:06.560Z,8.78
2023-04-29T03:55:34.259Z,8.82
2023-04-29T03:58:02.099Z,8.85
2023-04-29T04:00:31.338Z,8.88
2023-04-29T04:03:02.675Z,8.85
2023-04-29T04:05:32.416Z,8.87
2023-04-29T04:08:07.434Z,8.91
2023-04-29T04:10:34.967Z,8.91
2023-04-29T04:13:06.498Z,8.92
2023-04-29T04:15:33.971Z,8.93
2023-04-29T04:18:01.713Z,8.96
2023-04-29T04:20:29.342Z,8.96
2023-04-29T04:22:56.744Z,8.99
2023-04-29T04:25:30.240Z,9.00
2023-04-29T04:28:07.472Z,9.00
2023-04-29T04:30:57.608Z,9.06
2023-04-29T04:33:26.183Z,9.06
2023-04-29T04:35:53.644Z,9.09
2023-04-29T04:38:21.987Z,9.10
2023-04-29T04:40:50.810Z,9.15
2023-04-29T04:43:33.651Z,9.19
2023-04-29T04:46:10.015Z,9.25
2023-04-29T04:48:39.253Z,9.24
2023-04-29T04:51:10.303Z,9.25
2023-04-29T04:53:38.402Z,9.32
2023-04-29T04:56:10.835Z,9.36
2023-04-29T04:58:39.046Z,9.40
2023-04-29T05:01:06.559Z,9.45
2023-04-29T05:03:34.536Z,9.52
2023-04-29T05:06:02.182Z,9.54
2023-04-29T05:08:31.102Z,9.59
2023-04-29T05:11:01.031Z,9.65
2023-04-29T05:13:29.876Z,9.72
2023-04-29T05:15:57.553Z,9.74
2023-04-29T05:18:29.316Z,9.77
2023-04-29T05:20:56.804Z,9.75
2023-04-29T05:23:24.433Z,9.81
2023-04-29T05:25:52.347Z,9.87
2023-04-29T05:28:19.896Z,9.88
2023-04-29T05:30:50.774Z,9.90
2023-04-29T05:33:18.314Z,9.97
2023-04-29T05:35:46.272Z,9.87
2023-04-29T05:38:13.892Z,9.91
2023-04-29T05:40:49.956Z,9.95
2023-04-29T05:43:37.699Z,10.02
2023-04-29T05:46:06.819Z,10.11
2023-04-29T05:48:34.439Z,10.14
2023-04-29T05:51:02.030Z,10.27
2023-04-29T05:53:29.680Z,10.31
2023-04-29T05:55:57.432Z,10.38
2023-04-29T05:58:25.871Z,10.49
2023-04-29T06:00:53.496Z,10.51
2023-04-29T06:03:25.786Z,10.53
2023-04-29T06:06:03.364Z,10.53
2023-04-29T06:08:30.992Z,10.51
2023-04-29T06:11:22.373Z,10.57
2023-04-29T06:13:49.873Z,10.58
2023-04-29T06:16:18.680Z,10.59
2023-04-29T06:18:47.576Z,10.71
2023-04-29T06:21:16.277Z,10.76
2023-04-29T06:23:43.984Z,10.90
2023-04-29T06:26:17.074Z,11.08
2023-04-29T06:28:45.193Z,11.16
2023-04-29T06:31:13.389Z,11.15
2023-04-29T06:33:42.423Z,11.27
2023-04-29T06:36:11.302Z,11.37
2023-04-29T06:39:01.844Z,11.52
2023-04-29T06:41:52.157Z,11.66
2023-04-29T06:44:38.193Z,11.75
2023-04-29T06:47:34.738Z,11.88
2023-04-29T06:50:12.561Z,11.92
2023-04-29T06:52:41.487Z,12.12
2023-04-29T06:55:11.681Z,12.44
2023-04-29T06:57:42.320Z,12.45
2023-04-29T07:00:10.426Z,12.56
2023-04-29T07:02:39.225Z,12.66
2023-04-29T07:05:07.948Z,12.73
2023-04-29T07:07:36.267Z,12.85
2023-04-29T07:10:06.017Z,12.77
2023-04-29T07:12:33.512Z,12.81
2023-04-29T07:15:01.710Z,13.11
2023-04-29T07:17:31.547Z,13.18
2023-04-29T07:19:59.251Z,13.27
2023-04-29T07:22:26.977Z,13.28
2023-04-29T07:24:55.191Z,13.23
2023-04-29T07:27:24.823Z,13.20
2023-04-29T07:29:53.114Z,13.22
2023-04-29T07:32:20.922Z,13.23
2023-04-29T07:34:48.743Z,13.82
2023-04-29T07:37:16.700Z,13.96
2023-04-29T07:39:44.410Z,13.99
2023-04-29T07:42:11.990Z,14.01
2023-04-29T07:44:41.217Z,14.11
2023-04-29T07:47:09.487Z,14.39
2023-04-29T07:49:37.426Z,14.33
2023-04-29T07:52:05.209Z,14.10
2023-04-29T07:54:32.636Z,14.18
2023-04-29T07:57:00.542Z,14.24
2023-04-29T07:59:28.034Z,14.31
2023-04-29T08:01:57.227Z,14.39
2023-04-29T08:04:25.096Z,14.30
2023-04-29T08:07:02.647Z,14.54
2023-04-29T08:09:30.264Z,14.59
2023-04-29T08:11:57.735Z,14.75
2023-04-29T08:14:25.422Z,14.75
2023-04-29T08:16:53.327Z,14.90
2023-04-29T08:19:22.191Z,15.05
2023-04-29T08:21:52.016Z,15.05
2023-04-29T08:24:20.644Z,15.03
2023-04-29T08:26:48.326Z,14.86
2023-04-29T08:29:16.166Z,14.74
2023-04-29T08:31:43.692Z,14.70
2023-04-29T08:34:11.183Z,14.76
2023-04-29T08:36:40.046Z,14.65
2023-04-29T08:39:07.440Z,14.66
2023-04-29T08:41:36.855Z,14.69
2023-04-29T08:44:04.415Z,14.77
2023-04-29T08:46:32.564Z,14.73
2023-04-29T08:49:03.814Z,14.82
2023-04-29T08:51:33.941Z,14.87
2023-04-29T08:54:02.807Z,14.85
2023-04-29T08:56:31.199Z,15.39
2023-04-29T08:58:59.144Z,15.71
2023-04-29T09:01:28.873Z,15.91
2023-04-29T09:04:08.486Z,15.83
2023-04-29T09:06:35.927Z,16.20
2023-04-29T09:09:05.846Z,16.58
2023-04-29T09:11:34.345Z,17.17
2023-04-29T09:14:03.383Z,17.70
2023-04-29T09:16:31.030Z,17.96
2023-04-29T09:18:58.485Z,17.95
2023-04-29T09:21:27.830Z,18.27
2023-04-29T09:23:57.139Z,17.77
2023-04-29T09:26:26.787Z,17.83
2023-04-29T09:29:14.062Z,17.69
2023-04-29T09:31:42.121Z,17.50
2023-04-29T09:34:11.826Z,18.06
2023-04-29T09:36:47.547Z,18.82
2023-04-29T09:39:17.514Z,18.92
2023-04-29T09:42:02.477Z,18.85
2023-04-29T09:44:33.881Z,18.89
2023-04-29T09:47:03.909Z,18.98
2023-04-29T09:49:32.901Z,19.15
2023-04-29T09:52:02.228Z,19.63
2023-04-29T09:54:31.462Z,19.77
2023-04-29T09:57:02.318Z,20.62
2023-04-29T09:59:29.910Z,20.49
2023-04-29T10:01:58.629Z,20.47
2023-04-29T10:04:28.072Z,20.49
2023-04-29T10:06:56.637Z,20.58
2023-04-29T10:09:24.283Z,20.19
2023-04-29T10:11:53.310Z,19.47
2023-04-29T10:14:24.907Z,19.08
2023-04-29T10:16:59.893Z,18.79
2023-04-29T10:19:34.309Z,19.05
2023-04-29T10:22:08.916Z,19.36
2023-04-29T10:24:37.827Z,19.08
2023-04-29T10:27:08.251Z,19.02
2023-04-29T10:29:38.794Z,18.83
2023-04-29T10:32:09.782Z,18.73
2023-04-29T10:34:39.666Z,18.86
2023-04-29T10:37:09.678Z,19.09
2023-04-29T10:39:44.110Z,19.25
2023-04-29T10:42:20.421Z,19.48
2023-04-29T10:45:24.289Z,19.86
2023-04-29T10:48:15.928Z,20.00
2023-04-29T10:51:02.384Z,19.97
2023-04-29T10:53:30.291Z,20.39
2023-04-29T10:55:58.927Z,20.60
2023-04-29T10:58:35.452Z,21.44
2023-04-29T11:01:03.308Z,21.59
2023-04-29T11:03:58.384Z,22.32
2023-04-29T11:06:39.672Z,22.76
2023-04-29T11:09:11.077Z,21.78
2023-04-29T11:11:46.608Z,21.67
2023-04-29T11:14:14.814Z,21.31
2023-04-29T11:16:50.900Z,21.58
2023-04-29T11:19:20.027Z,22.32
2023-04-29T11:21:47.617Z,21.85
2023-04-29T11:24:16.114Z,20.94
2023-04-29T11:26:44.435Z,20.25
2023-04-29T11:29:12.097Z,19.35
2023-04-29T11:31:39.752Z,19.32
2023-04-29T11:34:07.575Z,19.21
2023-04-29T11:36:36.715Z,19.29
2023-04-29T11:39:05.040Z,19.44
2023-04-29T11:41:32.446Z,19.92
2023-04-29T11:44:01.248Z,20.28
2023-04-29T11:46:31.865Z,20.63
2023-04-29T11:49:02.087Z,20.17
2023-04-29T11:51:29.691Z,19.25
2023-04-29T11:53:58.482Z,18.38
2023-04-29T11:56:26.064Z,17.55
2023-04-29T11:58:57.966Z,17.60
2023-04-29T12:01:26.909Z,18.01
2023-04-29T12:03:59.338Z,18.64
2023-04-29T12:06:28.958Z,19.11
2023-04-29T12:09:01.197Z,19.10
2023-04-29T12:11:28.988Z,19.31
2023-04-29T12:13:56.926Z,19.46
2023-04-29T12:16:24.567Z,20.08
2023-04-29T12:18:53.297Z,20.10
2023-04-29T12:21:21.921Z,19.64
2023-04-29T12:23:50.685Z,19.84
2023-04-29T12:26:20.858Z,19.52
2023-04-29T12:28:49.122Z,20.01
2023-04-29T12:31:16.990Z,19.80
2023-04-29T12:33:44.460Z,19.84
2023-04-29T12:36:18.241Z,19.53
2023-04-29T12:38:47.596Z,19.91
2023-04-29T12:41:17.123Z,19.88
2023-04-29T12:43:46.350Z,20.11
2023-04-29T12:46:14.744Z,20.04
2023-04-29T12:48:43.720Z,19.60
2023-04-29T12:51:11.943Z,19.44
2023-04-29T12:53:39.766Z,18.98
2023-04-29T12:56:08.050Z,18.81
2023-04-29T12:58:35.816Z,19.09
2023-04-29T13:01:04.704Z,18.80
2023-04-29T13:03:33.236Z,18.79
2023-04-29T13:06:01.327Z,19.03
2023-04-29T13:08:28.773Z,18.96
2023-04-29T13:10:56.189Z,18.94
2023-04-29T13:13:23.643Z,18.65
2023-04-29T13:15:51.060Z,18.70
2023-04-29T13:18:20.176Z,18.81
2023-04-29T13:23:15.431Z,18.53
2023-04-29T13:25:42.886Z,18.65
2023-04-29T13:28:10.333Z,18.66
2023-04-29T13:30:37.780Z,18.76
2023-04-29T13:33:11.837Z,18.64
2023-04-29T13:35:42.227Z,18.57
2023-04-29T13:38:09.701Z,18.65
2023-04-29T13:40:41.747Z,18.42
2023-04-29T13:43:15.041Z,18.41
2023-04-29T13:45:48.080Z,18.70
2023-04-29T13:51:27.042Z,18.50
2023-04-29T13:54:00.681Z,18.68
2023-04-29T13:56:54.607Z,18.48
2023-04-29T13:59:40.010Z,18.84
2023-04-29T14:04:31.744Z,19.01
2023-04-29T14:07:00.671Z,19.22
2023-04-29T14:09:28.074Z,19.18
2023-04-29T14:11:55.656Z,19.45
2023-04-29T14:14:23.046Z,19.54
2023-04-29T14:16:50.423Z,19.76
2023-04-29T14:19:17.839Z,19.77
2023-04-29T14:21:45.351Z,19.84
2023-04-29T14:24:14.022Z,19.51
2023-04-29T14:26:41.871Z,19.20
2023-04-29T14:29:09.382Z,19.06
2023-04-29T14:31:39.774Z,19.11
2023-04-29T14:34:07.422Z,19.39
2023-04-29T14:36:34.799Z,19.38
2023-04-29T14:39:03.822Z,19.28
2023-04-29T14:41:32.701Z,19.10
2023-04-29T14:44:00.153Z,19.00
2023-04-29T14:46:29.465Z,18.92
2023-04-29T14:48:56.993Z,18.79
2023-04-29T14:51:25.065Z,18.36
2023-04-29T14:53:52.756Z,18.24
2023-04-29T14:56:20.207Z,18.30
2023-04-29T14:58:49.040Z,18.32
2023-04-29T15:01:16.556Z,18.62
2023-04-29T15:03:45.097Z,18.60
2023-04-29T15:06:13.216Z,18.45
2023-04-29T15:08:40.778Z,18.38
2023-04-29T15:11:08.224Z,18.22
2023-04-29T15:13:35.893Z,18.06
2023-04-29T15:16:07.346Z,17.87
2023-04-29T15:18:34.850Z,17.73
2023-04-29T15:21:04.268Z,17.68
2023-04-29T15:23:31.629Z,17.61
2023-04-29T15:25:59.371Z,17.68
2023-04-29T15:28:26.818Z,17.74
2023-04-29T15:30:54.294Z,17.55
2023-04-29T15:33:23.715Z,17.54
2023-04-29T15:35:51.270Z,17.50
2023-04-29T15:38:18.674Z,17.21
2023-04-29T15:40:46.397Z,17.28
2023-04-29T15:43:13.812Z,17.10
2023-04-29T15:45:42.129Z,17.27
2023-04-29T15:48:09.670Z,17.17
2023-04-29T15:50:38.566Z,16.81
2023-04-29T15:53:06.038Z,16.89
2023-04-29T15:55:35.044Z,16.64
2023-04-29T15:58:02.588Z,16.76
2023-04-29T16:00:30.128Z,16.81
2023-04-29T16:02:57.623Z,16.81
2023-04-29T16:05:25.043Z,16.75
2023-04-29T16:07:53.854Z,16.76
2023-04-29T16:10:21.506Z,16.67
2023-04-29T16:12:49.053Z,16.62
2023-04-29T16:15:16.630Z,16.56
2023-04-29T16:17:44.148Z,16.56
2023-04-29T16:20:12.093Z,16.41
2023-04-29T16:22:39.635Z,16.40
2023-04-29T16:25:09.506Z,16.25
2023-04-29T16:27:37.046Z,16.03
2023-04-29T16:30:05.430Z,15.85
2023-04-29T16:32:33.484Z,15.67
2023-04-29T16:35:01.930Z,15.66
2023-04-29T16:37:29.582Z,15.63
2023-04-29T16:39:57.134Z,15.55
2023-04-29T16:42:26.027Z,15.56
2023-04-29T16:44:53.415Z,15.46
2023-04-29T16:47:21.604Z,15.42
2023-04-29T16:49:49.112Z,15.30
2023-04-29T16:52:17.740Z,15.14
2023-04-29T16:54:45.357Z,15.08
2023-04-29T16:57:12.771Z,15.11
2023-04-29T16:59:41.565Z,15.13
2023-04-29T17:02:09.407Z,14.79
2023-04-29T17:04:37.289Z,14.70
2023-04-29T17:07:04.834Z,14.55
2023-04-29T17:09:32.375Z,14.60
2023-04-29T17:11:59.839Z,14.62
2023-04-29T17:14:27.348Z,14.54
2023-04-29T17:16:56.064Z,14.50
2023-04-29T17:19:23.534Z,14.53
2023-04-29T17:21:51.062Z,14.50
2023-04-29T17:24:18.531Z,14.24
2023-04-29T17:26:46.219Z,14.28
2023-04-29T17:29:13.734Z,14.15
2023-04-29T17:31:54.217Z,14.30
2023-04-29T17:34:28.038Z,14.00
2023-04-29T17:36:55.703Z,13.95
2023-04-29T17:39:23.089Z,13.95
2023-04-29T17:41:50.516Z,13.94
2023-04-29T17:44:17.934Z,13.95
2023-04-29T17:46:45.463Z,13.98
2023-04-29T17:49:13.025Z,13.93
2023-04-29T17:51:42.051Z,13.87
2023-04-29T17:54:10.317Z,13.54
2023-04-29T17:56:38.076Z,13.56
2023-04-29T17:59:06.034Z,13.66
2023-04-29T18:01:34.001Z,13.69
2023-04-29T18:04:01.943Z,13.71
2023-04-29T18:06:30.267Z,13.64
2023-04-29T18:08:59.267Z,13.61
2023-04-29T18:11:27.281Z,13.59
2023-04-29T18:13:54.803Z,13.37
2023-04-29T18:16:22.700Z,13.38
2023-04-29T18:18:51.546Z,13.32
2023-04-29T18:21:22.673Z,13.33
2023-04-29T18:23:50.422Z,13.32
2023-04-29T18:26:19.647Z,13.34
2023-04-29T18:28:47.880Z,13.38
2023-04-29T18:31:16.640Z,13.31
2023-04-29T18:33:44.784Z,13.19
2023-04-29T18:36:14.040Z,13.20
2023-04-29T18:38:41.717Z,13.20
2023-04-29T18:41:09.391Z,13.26
2023-04-29T18:43:38.257Z,13.28
2023-04-29T18:46:05.702Z,13.23
2023-04-29T18:48:34.761Z,13.23
2023-04-29T18:51:04.341Z,13.18
2023-04-29T18:53:31.994Z,13.20
2023-04-29T18:55:59.500Z,13.19
2023-04-29T18:58:27.686Z,13.15
2023-04-29T19:00:59.157Z,13.11
2023-04-29T19:03:27.122Z,13.12
2023-04-29T19:05:54.559Z,13.09
2023-04-29T19:08:22.031Z,13.07
2023-04-29T19:10:49.496Z,13.00
2023-04-29T19:13:17.278Z,12.93
2023-04-29T19:15:44.744Z,12.93
2023-04-29T19:18:13.548Z,12.92
2023-04-29T19:20:41.192Z,12.92
2023-04-29T19:23:08.719Z,12.88
2023-04-29T19:25:36.336Z,12.81
2023-04-29T19:28:04.078Z,12.78
2023-04-29T19:30:31.581Z,12.78
2023-04-29T19:32:59.005Z,12.68
2023-04-29T19:35:28.207Z,12.70
2023-04-29T19:37:55.954Z,12.72
2023-04-29T19:40:23.427Z,12.65
2023-04-29T19:42:50.798Z,12.64
2023-04-29T19:45:18.228Z,12.61
2023-04-29T19:47:46.097Z,12.59
2023-04-29T19:50:13.637Z,12.61
2023-04-29T19:52:42.378Z,12.61
2023-04-29T19:55:10.238Z,12.55
2023-04-29T19:57:38.766Z,12.55
2023-04-29T20:00:07.734Z,12.53
2023-04-29T20:02:36.548Z,12.52
2023-04-29T20:05:04.458Z,12.54
2023-04-29T20:07:31.824Z,12.56
2023-04-29T20:10:00.930Z,12.43
2023-04-29T20:12:28.336Z,12.45
2023-04-29T20:14:56.364Z,12.44
2023-04-29T20:17:24.029Z,12.42
2023-04-29T20:19:51.925Z,12.40
2023-04-29T20:22:19.958Z,12.37
2023-04-29T20:24:47.400Z,12.35
2023-04-29T20:27:16.197Z,12.35
2023-04-29T20:29:43.691Z,12.35
2023-04-29T20:32:11.442Z,12.35
2023-04-29T20:34:38.913Z,12.33
2023-04-29T20:37:07.022Z,12.33
2023-04-29T20:39:34.486Z,12.27
2023-04-29T20:42:02.465Z,12.23
2023-04-29T20:44:31.419Z,12.26
2023-04-29T20:46:58.973Z,12.30
2023-04-29T20:49:26.688Z,12.29
2023-04-29T20:51:54.202Z,12.28
2023-04-29T20:54:21.759Z,12.23
2023-04-29T20:56:49.252Z,12.22
2023-04-29T20:59:16.772Z,12.22
2023-04-29T21:01:46.325Z,12.25
2023-04-29T21:04:14.300Z,12.19
2023-04-29T21:06:41.886Z,12.16
2023-04-29T21:09:09.362Z,12.16
2023-04-29T21:11:36.753Z,12.09
2023-04-29T21:14:04.225Z,12.09
2023-04-29T21:16:31.694Z,12.06
2023-04-29T21:19:00.777Z,12.07
2023-04-29T21:21:28.301Z,12.05
2023-04-29T21:23:55.756Z,12.07
2023-04-29T21:26:23.214Z,12.07
2023-04-29T21:28:50.680Z,12.05
2023-04-29T21:31:18.420Z,12.04
2023-04-29T21:33:46.443Z,11.98
2023-04-29T21:36:15.314Z,11.97
2023-04-29T21:38:42.997Z,11.97
2023-04-29T21:41:18.265Z,11.86
2023-04-29T21:43:45.792Z,11.84
2023-04-29T21:46:13.436Z,11.82
2023-04-29T21:48:41.056Z,11.73
2023-04-29T21:51:08.601Z,11.71
2023-04-29T21:53:38.330Z,11.74
2023-04-29T21:56:06.175Z,11.73
2023-04-29T21:58:34.198Z,11.71
2023-04-29T22:01:03.531Z,11.66
2023-04-29T22:03:31.671Z,11.60
2023-04-29T22:05:59.265Z,11.53
2023-04-29T22:08:26.750Z,11.49
2023-04-29T22:10:55.597Z,11.51
2023-04-29T22:13:23.092Z,11.55
2023-04-29T22:15:50.583Z,11.54
2023-04-29T22:18:17.980Z,11.57
2023-04-29T22:20:46.326Z,11.58
2023-04-29T22:23:13.831Z,11.56
2023-04-29T22:25:41.292Z,11.57
2023-04-29T22:28:10.076Z,11.57
2023-04-29T22:30:38.024Z,11.55
2023-04-29T22:33:05.464Z,11.54
2023-04-29T22:38:00.716Z,11.55
2023-04-29T22:40:28.529Z,11.52
2023-04-29T22:42:55.936Z,11.52
2023-04-29T22:45:24.933Z,11.52
2023-04-29T22:47:52.421Z,11.50
2023-04-29T22:50:19.919Z,11.50
2023-04-29T22:52:47.426Z,11.49
2023-04-29T22:55:15.007Z,11.48
2023-04-29T22:57:42.390Z,11.46
2023-04-29T23:00:11.645Z,11.43
2023-04-29T23:02:40.916Z,11.38
2023-04-29T23:05:09.125Z,11.36
2023-04-29T23:07:36.552Z,11.30
2023-04-29T23:10:04.513Z,11.32
2023-04-29T23:12:32.015Z,11.32
2023-04-29T23:14:59.454Z,11.26
2023-04-29T23:17:26.970Z,11.24
2023-04-29T23:19:56.018Z,11.24
2023-04-29T23:22:23.663Z,11.23
2023-04-29T23:24:51.366Z,11.20
2023-04-29T23:27:18.951Z,11.23
2023-04-29T23:29:46.609Z,11.21
2023-04-29T23:32:14.093Z,11.16
2023-04-29T23:34:41.498Z,11.16
2023-04-29T23:37:10.400Z,11.13
2023-04-29T23:39:37.804Z,11.07
2023-04-29T23:42:05.313Z,11.10
2023-04-29T23:44:32.925Z,11.07
2023-04-29T23:47:00.475Z,11.06
2023-04-29T23:49:28.816Z,10.97
2023-04-29T23:51:56.491Z,10.92
2023-04-29T23:54:25.350Z,10.89
2023-04-29T23:56:52.783Z,10.87
2023-04-29T23:59:20.350Z,10.82
